Overview Statistics Trail Chart Weather Telemetry Raw packets
 

This is the latest recevied weather packets stored in our database for station/object W5MAI. If no packets are shown the sender has not sent any weather packets the latest 10 day(s).

<< 43 44 45 46 47 48 49 >>
Time Temp. Humidity Pressure Rain* Wind** Luminosity Snow
1787876057 22.78° C 92% 1014.9 hPa 7.11 mm - 7 W/m² -
1787874818 22.78° C 90% 1014.8 hPa 7.11 mm - 0 W/m² -
1787874252 22.78° C 88% 1014.9 hPa 7.11 mm - 0 W/m² -
1787873046 25.56° C 77% 1016.4 hPa 2.79 mm - 5 W/m² -
1787872414 26.67° C 74% 1015.6 hPa 0 mm - 14 W/m² -
1787871820 27.22° C 80% 1015.6 hPa 0 mm - 32 W/m² -
1787871241 27.22° C 86% 1015.2 hPa 0.25 mm - 104 W/m² -
1787870605 26.67° C 86% 1013.8 hPa 0.51 mm - 239 W/m² -
1787869436 26.11° C 88% 1013.9 hPa 0.51 mm - 190 W/m² -
1787868833 26.11° C 87% 1014 hPa 0.76 mm - 135 W/m² -
1787868262 25.56° C 85% 1013.9 hPa 1.78 mm - 97 W/m² -
1787867026 25.56° C 83% 1015.2 hPa 1.78 mm - 54 W/m² -
1787866453 26.67° C 79% 1015.3 hPa 1.78 mm - 53 W/m² -
1787865818 27.78° C 71% 1015.2 hPa 2.03 mm - 60 W/m² -
1787864635 35° C 58% 1014.5 hPa 0.51 mm - 640 W/m² -
1787864058 33.33° C 66% 1014.5 hPa 2.29 mm - 954 W/m² -
1787863425 30.56° C 82% 1014.5 hPa 2.29 mm - 949 W/m² -
1787862849 30.56° C 80% 1014.7 hPa 2.29 mm - 229 W/m² -
1787862222 30.56° C 76% 1014.9 hPa 2.03 mm - 209 W/m² -
1787861628 30.56° C 71% 1014.9 hPa 2.03 mm - 881 W/m² -
1787861043 32.22° C 57% 1015.6 hPa 2.03 mm - 193 W/m² -
1787860456 36.67° C 42% 1015.5 hPa 0 mm - 156 W/m² -
1787859222 37.22° C 40% 1015.8 hPa 0 mm - 248 W/m² -
1787858652 37.78° C 39% 1015.9 hPa 0 mm - 299 W/m² -
1787858006 37.78° C 40% 1016.1 hPa 0 mm - 1046 W/m² -

* Rain latest hour (hover to see other rain measurements)
** Current wind speed in m/s (hover to see current wind gust speed)